createdAt,value
2019-06-26T00:00:50.979Z,180.20
2019-06-26T00:03:19.510Z,179.05
2019-06-26T00:05:46.534Z,178.38
2019-06-26T00:08:16.776Z,178.23
2019-06-26T00:10:43.955Z,178.35
2019-06-26T00:13:26.101Z,176.70
2019-06-26T00:15:50.640Z,181.60
2019-06-26T00:18:17.714Z,181.47
2019-06-26T00:20:44.986Z,176.07
2019-06-26T00:23:13.228Z,177.20
2019-06-26T00:25:40.296Z,177.75
2019-06-26T00:28:07.433Z,179.53
2019-06-26T00:30:35.710Z,177.93
2019-06-26T00:33:02.789Z,178.25
2019-06-26T00:35:30.218Z,178.87
2019-06-26T00:37:57.565Z,181.57
2019-06-26T00:40:24.613Z,179.47
2019-06-26T00:42:51.681Z,180.90
2019-06-26T00:45:18.763Z,178.60
2019-06-26T00:47:45.774Z,177.80
2019-06-26T00:50:13.201Z,178.62
2019-06-26T00:52:40.666Z,179.05
2019-06-26T00:55:09.354Z,180.05
2019-06-26T00:57:36.386Z,180.63
2019-06-26T01:00:08.304Z,177.12
2019-06-26T01:02:36.657Z,179.85
2019-06-26T01:05:06.479Z,179.00
2019-06-26T01:07:33.557Z,176.87
2019-06-26T01:10:00.627Z,179.12
2019-06-26T01:12:27.666Z,175.97
2019-06-26T01:14:55.946Z,175.68
2019-06-26T01:17:23.593Z,176.25
2019-06-26T01:19:50.632Z,176.57
2019-06-26T01:22:21.009Z,173.90
2019-06-26T01:24:48.054Z,177.22
2019-06-26T01:27:15.399Z,175.60
2019-06-26T01:29:52.743Z,175.95
2019-06-26T01:32:27.601Z,176.70
2019-06-26T01:35:12.283Z,176.20
2019-06-26T01:37:39.729Z,174.77
2019-06-26T01:40:07.548Z,175.12
2019-06-26T01:42:34.653Z,175.87
2019-06-26T01:45:01.681Z,176.68
2019-06-26T01:47:29.900Z,176.53
2019-06-26T01:49:56.985Z,177.25
2019-06-26T01:52:24.013Z,175.35
2019-06-26T01:54:51.321Z,178.50
2019-06-26T01:57:18.389Z,174.97
2019-06-26T01:59:48.882Z,177.97
2019-06-26T02:02:16.490Z,178.93
2019-06-26T02:04:43.540Z,177.07
2019-06-26T02:07:10.560Z,175.80
2019-06-26T02:09:37.631Z,178.75
2019-06-26T02:12:04.717Z,176.50
2019-06-26T02:14:32.102Z,175.18
2019-06-26T02:16:59.196Z,176.35
2019-06-26T02:19:27.373Z,175.00
2019-06-26T02:21:55.782Z,175.93
2019-06-26T02:24:23.006Z,174.70
2019-06-26T02:27:00.666Z,176.45
2019-06-26T02:29:29.129Z,176.02
2019-06-26T02:31:56.166Z,177.85
2019-06-26T02:34:27.780Z,176.00
2019-06-26T02:36:55.209Z,176.00
2019-06-26T02:39:22.241Z,175.42
2019-06-26T02:41:49.291Z,175.78
2019-06-26T02:44:16.333Z,176.78
2019-06-26T02:46:43.371Z,177.53
2019-06-26T02:49:10.608Z,179.18
2019-06-26T02:51:37.643Z,175.38
2019-06-26T02:54:04.659Z,175.30
2019-06-26T02:56:31.713Z,176.07
2019-06-26T02:59:04.203Z,178.57
2019-06-26T03:01:36.616Z,175.80
2019-06-26T03:04:05.955Z,177.22
2019-06-26T03:06:32.960Z,176.22
2019-06-26T03:09:08.631Z,177.68
2019-06-26T03:11:36.883Z,177.95
2019-06-26T03:14:03.926Z,175.97
2019-06-26T03:16:34.266Z,174.38
2019-06-26T03:19:01.284Z,175.00
2019-06-26T03:21:28.360Z,177.35
2019-06-26T03:24:19.085Z,176.00
2019-06-26T03:27:21.842Z,176.40
2019-06-26T03:29:50.195Z,175.40
2019-06-26T03:32:17.270Z,177.97
2019-06-26T03:34:44.414Z,177.38
2019-06-26T03:37:14.607Z,175.42
2019-06-26T03:39:41.638Z,178.60
2019-06-26T03:42:08.807Z,173.60
2019-06-26T03:44:47.007Z,177.05
2019-06-26T03:47:21.503Z,178.68
2019-06-26T03:50:09.741Z,177.95
2019-06-26T03:52:47.614Z,181.47
2019-06-26T03:55:24.580Z,180.60
2019-06-26T03:57:57.192Z,177.93
2019-06-26T04:00:53.285Z,178.97
2019-06-26T04:03:37.162Z,179.93
2019-06-26T04:06:08.732Z,178.93
2019-06-26T04:08:53.315Z,182.00
2019-06-26T04:11:23.443Z,179.85
2019-06-26T04:13:50.507Z,178.38
2019-06-26T04:16:20.919Z,179.80
2019-06-26T04:18:48.014Z,182.62
2019-06-26T04:21:15.442Z,179.07
2019-06-26T04:23:43.628Z,183.35
2019-06-26T04:26:10.720Z,181.18
2019-06-26T04:28:37.845Z,180.57
2019-06-26T04:31:04.928Z,186.10
2019-06-26T04:33:33.887Z,183.47
2019-06-26T04:36:02.282Z,185.85
2019-06-26T04:38:29.643Z,184.82
2019-06-26T04:41:10.659Z,190.40
2019-06-26T04:43:47.087Z,186.45
2019-06-26T04:46:21.611Z,193.60
2019-06-26T04:48:57.180Z,189.70
2019-06-26T04:51:32.369Z,195.05
2019-06-26T04:54:10.767Z,190.70
2019-06-26T04:56:47.248Z,189.25
2019-06-26T05:02:35.833Z,193.65
2019-06-26T05:05:38.468Z,196.30
2019-06-26T05:07:58.536Z,192.32
2019-06-26T05:10:29.232Z,195.50
2019-06-26T05:12:56.701Z,193.43
2019-06-26T05:15:24.140Z,197.75
2019-06-26T05:18:36.670Z,199.32
2019-06-26T05:21:10.858Z,199.05
2019-06-26T05:24:11.880Z,201.73
2019-06-26T05:26:51.492Z,195.03
2019-06-26T05:29:19.613Z,194.15
2019-06-26T05:31:47.931Z,193.90
2019-06-26T05:34:22.705Z,195.32
2019-06-26T05:36:58.178Z,199.12
2019-06-26T05:39:45.249Z,190.40
2019-06-26T05:42:16.654Z,195.68
2019-06-26T05:44:45.009Z,196.15
2019-06-26T05:47:15.750Z,201.07
2019-06-26T05:49:49.523Z,199.00
2019-06-26T05:52:31.082Z,197.93
2019-06-26T05:55:03.838Z,191.90
2019-06-26T05:57:37.412Z,194.70
2019-06-26T06:00:16.910Z,197.57
2019-06-26T06:02:47.785Z,194.50
2019-06-26T06:05:27.433Z,193.57
2019-06-26T06:08:06.486Z,190.32
2019-06-26T06:10:44.300Z,193.65
2019-06-26T06:13:19.112Z,195.03
2019-06-26T06:15:54.980Z,194.57
2019-06-26T06:18:22.421Z,196.63
2019-06-26T06:20:50.773Z,200.80
2019-06-26T06:23:17.890Z,195.53
2019-06-26T06:25:47.470Z,199.47
2019-06-26T06:28:14.763Z,196.50
2019-06-26T06:30:48.018Z,196.20
2019-06-26T06:33:16.883Z,195.87
2019-06-26T06:35:45.932Z,193.78
2019-06-26T06:38:13.008Z,200.68
2019-06-26T06:44:34.020Z,196.32
2019-06-26T06:47:04.558Z,193.37
2019-06-26T06:49:31.702Z,198.82
2019-06-26T06:52:00.679Z,191.88
2019-06-26T06:54:31.420Z,195.28
2019-06-26T06:56:58.579Z,193.78
2019-06-26T06:59:25.940Z,192.10
2019-06-26T07:01:58.322Z,192.13
2019-06-26T07:04:26.276Z,191.68
2019-06-26T07:06:58.814Z,194.75
2019-06-26T07:09:32.416Z,193.70
2019-06-26T07:12:01.721Z,193.35
2019-06-26T07:15:03.185Z,194.90
2019-06-26T07:17:44.759Z,194.90
2019-06-26T07:20:12.038Z,193.80
2019-06-26T07:22:39.103Z,198.17
2019-06-26T07:25:13.466Z,197.68
2019-06-26T07:28:23.559Z,198.15
2019-06-26T07:30:58.270Z,199.25
2019-06-26T07:33:27.747Z,200.97
2019-06-26T07:36:08.129Z,205.65
2019-06-26T07:38:48.225Z,206.05
2019-06-26T07:41:23.641Z,207.52
2019-06-26T07:43:55.276Z,207.90
2019-06-26T07:46:23.104Z,205.55
2019-06-26T07:48:57.779Z,204.32
2019-06-26T07:55:12.490Z,202.15
2019-06-26T07:57:41.332Z,208.65
2019-06-26T08:00:16.931Z,203.12
2019-06-26T08:02:46.553Z,207.35
2019-06-26T08:05:32.915Z,204.53
2019-06-26T08:08:02.250Z,202.53
2019-06-26T08:10:33.757Z,202.45
2019-06-26T08:13:00.930Z,202.50
2019-06-26T08:15:28.020Z,199.68
2019-06-26T08:18:00.691Z,200.78
2019-06-26T08:20:25.695Z,197.82
2019-06-26T08:22:53.973Z,198.23
2019-06-26T08:25:22.267Z,198.75
2019-06-26T08:27:49.379Z,198.10
2019-06-26T08:30:16.920Z,196.30
2019-06-26T08:32:44.809Z,196.02
2019-06-26T08:35:12.336Z,196.82
2019-06-26T08:37:39.507Z,195.12
2019-06-26T08:40:07.385Z,198.65
2019-06-26T08:42:34.673Z,196.50
2019-06-26T08:45:01.948Z,196.68
2019-06-26T08:47:30.227Z,200.32
2019-06-26T08:50:01.387Z,199.72
2019-06-26T08:52:33.871Z,203.25
2019-06-26T08:55:01.091Z,205.70
2019-06-26T08:57:28.136Z,204.05
2019-06-26T08:59:55.675Z,206.45
2019-06-26T09:02:22.779Z,205.37
2019-06-26T09:04:49.985Z,204.70
2019-06-26T09:07:17.054Z,199.27
2019-06-26T09:09:44.524Z,197.40
2019-06-26T09:12:11.563Z,199.15
2019-06-26T09:14:38.983Z,199.15
2019-06-26T09:17:06.116Z,198.60
2019-06-26T09:19:34.452Z,197.30
2019-06-26T09:22:01.582Z,195.82
2019-06-26T09:24:28.697Z,196.85
2019-06-26T09:26:55.713Z,197.47
2019-06-26T09:29:24.143Z,202.97
2019-06-26T09:31:51.361Z,198.60
2019-06-26T09:34:18.527Z,196.32
2019-06-26T09:36:45.610Z,200.00
2019-06-26T09:39:18.433Z,200.68
2019-06-26T09:41:46.582Z,195.20
2019-06-26T09:44:15.918Z,196.60
2019-06-26T09:46:44.810Z,196.57
2019-06-26T09:49:11.999Z,194.97
2019-06-26T09:51:39.256Z,195.92
2019-06-26T09:54:07.611Z,196.37
2019-06-26T09:56:34.628Z,197.20
2019-06-26T09:59:01.685Z,195.77
2019-06-26T10:01:28.975Z,196.47
2019-06-26T10:03:56.019Z,199.20
2019-06-26T10:06:23.190Z,197.22
2019-06-26T10:08:54.073Z,199.90
2019-06-26T10:11:21.668Z,201.60
2019-06-26T10:13:48.710Z,197.55
2019-06-26T10:16:17.595Z,195.53
2019-06-26T10:18:45.022Z,195.47
2019-06-26T10:21:12.129Z,197.68
2019-06-26T10:23:39.236Z,197.45
2019-06-26T10:26:06.299Z,197.95
2019-06-26T10:28:33.321Z,194.52
2019-06-26T10:31:00.512Z,198.50
2019-06-26T10:33:29.097Z,196.78
2019-06-26T10:35:57.240Z,198.23
2019-06-26T10:38:30.926Z,199.02
2019-06-26T10:40:59.506Z,196.93
2019-06-26T10:43:26.586Z,197.82
2019-06-26T10:45:53.654Z,198.70
2019-06-26T10:48:20.677Z,201.73
2019-06-26T10:50:52.032Z,198.53
2019-06-26T10:53:16.855Z,198.55
2019-06-26T10:55:43.938Z,200.70
2019-06-26T10:58:10.949Z,200.03
2019-06-26T11:00:39.406Z,200.72
2019-06-26T11:03:07.291Z,202.47
2019-06-26T11:05:36.267Z,201.50
2019-06-26T11:08:09.718Z,200.50
2019-06-26T11:10:38.664Z,202.35
2019-06-26T11:13:09.944Z,200.47
2019-06-26T11:15:40.231Z,205.87
2019-06-26T11:18:09.550Z,206.02
2019-06-26T11:20:36.948Z,201.75
2019-06-26T11:23:05.833Z,199.15
2019-06-26T11:25:32.903Z,199.15
2019-06-26T11:28:14.663Z,200.38
2019-06-26T11:30:51.939Z,204.10
2019-06-26T11:33:20.963Z,204.00
2019-06-26T11:36:08.369Z,208.60
2019-06-26T11:38:35.575Z,204.07
2019-06-26T11:41:02.660Z,203.52
2019-06-26T11:43:30.179Z,200.85
2019-06-26T11:45:57.340Z,201.85
2019-06-26T11:48:26.239Z,200.97
2019-06-26T11:50:58.901Z,201.47
2019-06-26T11:53:26.002Z,203.47
2019-06-26T11:55:53.384Z,201.98
2019-06-26T11:58:20.528Z,205.40
2019-06-26T12:00:48.978Z,205.77
2019-06-26T12:03:16.197Z,208.05
2019-06-26T12:05:43.301Z,209.57
2019-06-26T12:08:10.706Z,206.87
2019-06-26T12:10:37.987Z,205.62
2019-06-26T12:13:05.140Z,209.55
2019-06-26T12:15:32.223Z,208.82
2019-06-26T12:18:01.737Z,211.22
2019-06-26T12:20:28.977Z,209.52
2019-06-26T12:22:57.846Z,210.20
2019-06-26T12:25:24.924Z,213.82
2019-06-26T12:27:53.123Z,211.87
2019-06-26T12:30:20.554Z,206.45
2019-06-26T12:33:02.454Z,205.83
2019-06-26T12:35:16.933Z,206.00
2019-06-26T12:37:48.030Z,206.68
2019-06-26T12:40:15.824Z,209.83
2019-06-26T12:42:42.898Z,204.87
2019-06-26T12:45:12.374Z,206.35
2019-06-26T12:47:39.448Z,205.92
2019-06-26T12:50:07.659Z,208.30
2019-06-26T12:52:36.074Z,207.70
2019-06-26T12:55:03.553Z,207.40
2019-06-26T12:57:30.726Z,206.95
2019-06-26T12:59:59.752Z,207.75
2019-06-26T13:02:27.394Z,209.75
2019-06-26T13:04:55.614Z,207.15
2019-06-26T13:07:22.635Z,207.50
2019-06-26T13:09:49.826Z,208.28
2019-06-26T13:12:16.890Z,207.67
2019-06-26T13:14:44.043Z,214.42
2019-06-26T13:17:11.230Z,216.17
2019-06-26T13:19:38.295Z,212.70
2019-06-26T13:22:05.399Z,212.27
2019-06-26T13:24:32.493Z,211.65
2019-06-26T13:27:00.670Z,212.68
2019-06-26T13:29:29.956Z,214.70
2019-06-26T13:31:57.435Z,216.05
2019-06-26T13:34:26.309Z,214.68
2019-06-26T13:36:53.392Z,216.20
2019-06-26T13:39:20.498Z,223.90
2019-06-26T13:41:47.718Z,220.55
2019-06-26T13:44:15.739Z,215.15
2019-06-26T13:46:42.814Z,213.92
2019-06-26T13:49:16.413Z,212.00
2019-06-26T13:51:43.718Z,210.17
2019-06-26T13:54:11.535Z,205.75
2019-06-26T13:56:38.879Z,207.52
2019-06-26T13:59:07.533Z,204.72
2019-06-26T14:01:34.912Z,207.35
2019-06-26T14:04:04.924Z,211.65
2019-06-26T14:06:34.817Z,208.35
2019-06-26T14:09:05.814Z,207.83
2019-06-26T14:11:32.855Z,209.87
2019-06-26T14:13:59.974Z,207.75
2019-06-26T14:16:30.034Z,208.68
2019-06-26T14:19:00.091Z,207.07
2019-06-26T14:21:28.966Z,206.65
2019-06-26T14:23:57.307Z,210.65
2019-06-26T14:26:24.361Z,207.57
2019-06-26T14:28:53.919Z,213.15
2019-06-26T14:31:23.378Z,210.78
2019-06-26T14:33:54.050Z,212.80
2019-06-26T14:36:23.422Z,213.97
2019-06-26T14:38:51.800Z,215.07
2019-06-26T14:41:18.927Z,212.35
2019-06-26T14:43:48.023Z,209.77
2019-06-26T14:46:15.146Z,209.00
2019-06-26T14:48:48.645Z,213.22
2019-06-26T14:51:16.124Z,215.10
2019-06-26T14:53:45.978Z,218.05
2019-06-26T14:56:18.560Z,219.32
2019-06-26T14:58:47.718Z,217.15
2019-06-26T15:01:14.976Z,209.95
2019-06-26T15:03:42.353Z,211.85
2019-06-26T15:06:16.863Z,208.43
2019-06-26T15:08:48.240Z,212.05
2019-06-26T15:11:15.854Z,211.25
2019-06-26T15:13:43.131Z,214.68
2019-06-26T15:16:10.189Z,216.25
2019-06-26T15:18:38.348Z,216.53
2019-06-26T15:21:08.377Z,214.78
2019-06-26T15:23:37.081Z,216.27
2019-06-26T15:26:06.656Z,221.95
2019-06-26T15:28:41.480Z,224.40
2019-06-26T15:31:08.589Z,221.18
2019-06-26T15:33:41.179Z,214.80
2019-06-26T15:36:11.877Z,219.37
2019-06-26T15:38:41.055Z,209.72
2019-06-26T15:41:08.150Z,213.03
2019-06-26T15:43:35.240Z,209.80
2019-06-26T15:46:02.890Z,213.50
2019-06-26T15:48:31.895Z,212.85
2019-06-26T15:50:59.026Z,214.38
2019-06-26T15:53:53.226Z,217.68
2019-06-26T15:56:25.350Z,217.77
2019-06-26T15:58:53.517Z,219.40
2019-06-26T16:01:22.275Z,222.73
2019-06-26T16:03:51.151Z,223.57
2019-06-26T16:06:18.283Z,220.85
2019-06-26T16:08:45.383Z,215.43
2019-06-26T16:11:12.595Z,212.50
2019-06-26T16:13:41.486Z,212.82
2019-06-26T16:16:08.733Z,211.72
2019-06-26T16:18:43.539Z,211.70
2019-06-26T16:21:10.868Z,214.70
2019-06-26T16:23:41.333Z,214.72
2019-06-26T16:26:11.084Z,215.22
2019-06-26T16:28:40.228Z,215.60
2019-06-26T16:31:10.184Z,215.90
2019-06-26T16:33:37.595Z,216.60
2019-06-26T16:36:06.047Z,222.37
2019-06-26T16:38:34.713Z,214.20
2019-06-26T16:41:02.488Z,210.43
2019-06-26T16:43:29.823Z,209.15
2019-06-26T16:45:56.879Z,207.25
2019-06-26T16:48:24.415Z,204.20
2019-06-26T16:50:51.463Z,210.55
2019-06-26T16:53:18.561Z,206.57
2019-06-26T16:55:48.661Z,207.98
2019-06-26T16:58:15.695Z,206.05
2019-06-26T17:00:43.079Z,208.23
2019-06-26T17:03:10.339Z,208.68
2019-06-26T17:05:38.500Z,207.95
2019-06-26T17:08:09.966Z,210.70
2019-06-26T17:10:37.378Z,203.45
2019-06-26T17:13:04.424Z,208.25
2019-06-26T17:15:31.934Z,204.18
2019-06-26T17:18:00.218Z,204.78
2019-06-26T17:20:27.312Z,203.12
2019-06-26T17:23:05.234Z,205.37
2019-06-26T17:25:23.345Z,207.10
2019-06-26T17:27:51.200Z,204.70
2019-06-26T17:30:19.950Z,205.65
2019-06-26T17:32:50.493Z,202.87
2019-06-26T17:35:19.346Z,202.65
2019-06-26T17:37:49.211Z,203.37
2019-06-26T17:40:16.974Z,203.75
2019-06-26T17:42:44.041Z,203.65
2019-06-26T17:45:12.002Z,203.02
2019-06-26T17:47:42.336Z,204.70
2019-06-26T17:50:11.000Z,200.70
2019-06-26T17:52:38.790Z,201.35
2019-06-26T17:55:07.772Z,204.63
2019-06-26T17:57:34.914Z,203.02
2019-06-26T18:00:14.614Z,201.35
2019-06-26T18:02:42.020Z,198.13
2019-06-26T18:05:09.912Z,198.70
2019-06-26T18:07:39.488Z,199.10
2019-06-26T18:10:08.514Z,202.38
2019-06-26T18:12:35.677Z,197.57
2019-06-26T18:15:14.626Z,199.47
2019-06-26T18:17:42.941Z,199.07
2019-06-26T18:20:19.146Z,201.22
2019-06-26T18:26:43.224Z,198.32
2019-06-26T18:29:15.711Z,198.02
2019-06-26T18:31:51.351Z,199.47
2019-06-26T18:34:24.542Z,203.85
2019-06-26T18:36:51.686Z,201.10
2019-06-26T18:39:20.590Z,198.50
2019-06-26T18:41:49.220Z,197.00
2019-06-26T18:44:16.301Z,197.10
2019-06-26T18:46:43.425Z,200.15
2019-06-26T18:49:10.499Z,196.95
2019-06-26T18:51:37.604Z,198.07
2019-06-26T18:54:05.046Z,197.20
2019-06-26T18:56:32.156Z,195.35
2019-06-26T18:58:59.192Z,196.57
2019-06-26T19:01:28.098Z,191.55
2019-06-26T19:03:55.166Z,194.50
2019-06-26T19:06:22.344Z,196.70
2019-06-26T19:08:49.420Z,195.07
2019-06-26T19:11:17.080Z,201.55
2019-06-26T19:13:50.074Z,196.82
2019-06-26T19:16:17.035Z,199.93
2019-06-26T19:18:44.487Z,193.05
2019-06-26T19:21:11.813Z,198.82
2019-06-26T19:23:38.925Z,195.80
2019-06-26T19:26:06.306Z,200.15
2019-06-26T19:28:33.820Z,195.87
2019-06-26T19:31:00.941Z,199.00
2019-06-26T19:33:28.078Z,194.75
2019-06-26T19:35:59.467Z,198.95
2019-06-26T19:38:28.684Z,196.85
2019-06-26T19:40:56.061Z,192.53
2019-06-26T19:43:23.143Z,197.70
2019-06-26T19:45:50.304Z,198.43
2019-06-26T19:48:17.417Z,199.27
2019-06-26T19:50:44.624Z,198.87
2019-06-26T19:53:12.887Z,201.47
2019-06-26T19:55:49.713Z,198.40
2019-06-26T19:58:21.637Z,199.38
2019-06-26T20:01:12.259Z,197.45
2019-06-26T20:04:02.265Z,197.00
2019-06-26T20:06:48.447Z,195.92
2019-06-26T20:09:22.522Z,191.98
2019-06-26T20:11:58.732Z,195.15
2019-06-26T20:14:39.266Z,199.27
2019-06-26T20:17:24.375Z,198.35
2019-06-26T20:19:54.267Z,203.47
2019-06-26T20:22:22.806Z,198.43
2019-06-26T20:24:53.179Z,198.62
2019-06-26T20:27:23.111Z,198.95
2019-06-26T20:30:02.330Z,195.28
2019-06-26T20:32:33.356Z,192.77
2019-06-26T20:35:01.143Z,188.30
2019-06-26T20:37:42.725Z,192.37
2019-06-26T20:40:21.863Z,194.75
2019-06-26T20:42:58.438Z,193.00
2019-06-26T20:45:32.251Z,192.57
2019-06-26T20:47:59.602Z,190.47
2019-06-26T20:50:31.213Z,188.90
2019-06-26T20:53:28.074Z,187.72
2019-06-26T20:56:07.382Z,194.47
2019-06-26T20:58:36.379Z,187.25
2019-06-26T21:01:03.851Z,185.50
2019-06-26T21:03:31.209Z,185.57
2019-06-26T21:05:58.338Z,188.37
2019-06-26T21:08:29.207Z,186.73
2019-06-26T21:10:56.932Z,187.75
2019-06-26T21:13:24.041Z,188.50
2019-06-26T21:15:53.027Z,190.65
2019-06-26T21:18:20.456Z,187.72
2019-06-26T21:20:47.524Z,190.77
2019-06-26T21:23:18.787Z,192.25
2019-06-26T21:25:46.130Z,191.28
2019-06-26T21:28:14.962Z,190.05
2019-06-26T21:30:45.477Z,184.78
2019-06-26T21:33:12.619Z,184.93
2019-06-26T21:35:39.724Z,186.22
2019-06-26T21:38:06.770Z,186.70
2019-06-26T21:40:33.852Z,185.28
2019-06-26T21:43:01.002Z,186.97
2019-06-26T21:45:28.283Z,183.10
2019-06-26T21:47:55.375Z,183.75
2019-06-26T21:50:22.424Z,186.88
2019-06-26T21:52:49.799Z,186.45
2019-06-26T21:55:33.360Z,186.03
2019-06-26T21:58:07.566Z,187.20
2019-06-26T22:00:54.045Z,191.50
2019-06-26T22:03:39.983Z,182.17
2019-06-26T22:06:17.893Z,186.05
2019-06-26T22:08:46.973Z,183.87
2019-06-26T22:11:16.049Z,184.30
2019-06-26T22:13:43.224Z,189.13
2019-06-26T22:16:13.005Z,188.20
2019-06-26T22:18:40.428Z,184.05
2019-06-26T22:21:07.496Z,188.93
2019-06-26T22:23:34.588Z,187.35
2019-06-26T22:26:01.686Z,189.77
2019-06-26T22:28:28.763Z,185.37
2019-06-26T22:30:56.028Z,189.50
2019-06-26T22:33:23.157Z,189.15
2019-06-26T22:35:50.591Z,185.03
2019-06-26T22:38:17.727Z,181.25
2019-06-26T22:40:46.587Z,188.60
2019-06-26T22:43:15.315Z,181.95
2019-06-26T22:45:42.377Z,183.80
2019-06-26T22:48:09.414Z,183.90
2019-06-26T22:50:36.505Z,187.32
2019-06-26T22:53:03.831Z,183.42
2019-06-26T22:55:31.002Z,186.40
2019-06-26T22:57:58.185Z,185.97
2019-06-26T23:00:25.230Z,185.60
2019-06-26T23:02:52.282Z,184.03
2019-06-26T23:05:19.400Z,185.28
2019-06-26T23:07:46.489Z,182.43
2019-06-26T23:10:14.048Z,183.30
2019-06-26T23:12:41.133Z,189.67
2019-06-26T23:15:10.307Z,185.12
2019-06-26T23:17:37.334Z,185.73
2019-06-26T23:20:06.336Z,182.25
2019-06-26T23:22:33.561Z,189.15
2019-06-26T23:25:00.618Z,180.22
2019-06-26T23:27:27.679Z,184.75
2019-06-26T23:29:54.756Z,186.82
2019-06-26T23:32:21.797Z,183.15
2019-06-26T23:34:48.865Z,185.45
2019-06-26T23:37:15.942Z,187.12
2019-06-26T23:39:45.381Z,183.87
2019-06-26T23:42:12.753Z,181.30
2019-06-26T23:44:39.803Z,187.70
2019-06-26T23:47:06.879Z,187.43
2019-06-26T23:49:35.148Z,183.22
2019-06-26T23:52:02.256Z,185.00
2019-06-26T23:54:29.307Z,180.50
2019-06-26T23:56:56.327Z,184.57
2019-06-26T23:59:23.419Z,183.45
